Opa Locka, Florida
Current Conditions -  °F | °C
As of 6:53 PM on Wednesday 26 Nov 2014 (Local Time) from KOPF Reporting Station
Scattered Clouds Scattered Clouds  
Wind Chill: 62°   Ceiling: Unl
Heat Index: 62°   Visibility: 10mi
Dew Point: 49°   Wind: 14mph
Humidity: 62%   Direction: 360°N
Pressure: 30.16"   Gusts: 21mph
Location:  25.92°N, 80.28°W
Report Text: KOPF 262353Z 36012G18KT 10SM FEW043 SCT100 17/09 A3016 RMK AO2 RAB27E48 SLP212 P0000 60000 T01670094 10217 20167 51017
Loading
Personal Weather Stations






























Interactive Weather Map New forecast layout! Learn more

10-Day Weather Forecast

Advertisements
Track Severe Weather on mobile